createdAt,value
2022-10-16T00:00:34.167Z,31.30
2022-10-16T00:04:14.032Z,31.80
2022-10-16T00:07:42.992Z,31.00
2022-10-16T00:11:12.955Z,31.10
2022-10-16T00:14:44.002Z,29.00
2022-10-16T00:18:16.549Z,29.20
2022-10-16T00:21:44.051Z,30.20
2022-10-16T00:25:12.649Z,29.90
2022-10-16T00:28:40.427Z,28.40
2022-10-16T00:32:07.543Z,30.10
2022-10-16T00:35:34.743Z,32.30
2022-10-16T00:39:02.650Z,29.10
2022-10-16T00:42:30.000Z,34.00
2022-10-16T00:45:56.746Z,32.80
2022-10-16T00:49:24.976Z,33.60
2022-10-16T00:52:53.894Z,33.60
2022-10-16T00:56:21.122Z,33.70
2022-10-16T00:59:48.536Z,33.00
2022-10-16T01:03:30.080Z,34.40
2022-10-16T01:07:08.356Z,32.80
2022-10-16T01:10:41.082Z,33.70
2022-10-16T01:14:13.853Z,33.50
2022-10-16T01:17:51.234Z,34.70
2022-10-16T01:21:24.583Z,36.20
2022-10-16T01:24:56.069Z,37.60
2022-10-16T01:28:26.866Z,39.30
2022-10-16T01:31:57.205Z,38.30
2022-10-16T01:35:29.753Z,37.50
2022-10-16T01:38:59.345Z,36.40
2022-10-16T01:42:31.510Z,34.80
2022-10-16T01:46:00.128Z,33.90
2022-10-16T01:49:30.379Z,32.80
2022-10-16T01:53:05.339Z,32.00
2022-10-16T01:56:33.888Z,32.20
2022-10-16T02:00:04.577Z,32.60
2022-10-16T02:03:40.635Z,34.90
2022-10-16T02:07:08.943Z,37.30
2022-10-16T02:10:37.154Z,36.80
2022-10-16T02:14:07.023Z,37.80
2022-10-16T02:17:33.927Z,36.80
2022-10-16T02:21:07.685Z,35.20
2022-10-16T02:24:39.123Z,35.80
2022-10-16T02:28:09.863Z,35.80
2022-10-16T02:31:43.647Z,34.10
2022-10-16T02:35:14.280Z,33.30
2022-10-16T02:38:43.572Z,32.90
2022-10-16T02:42:14.252Z,31.80
2022-10-16T02:45:41.100Z,32.80
2022-10-16T02:49:11.030Z,32.70
2022-10-16T02:52:38.387Z,33.80
2022-10-16T02:56:05.155Z,34.30
2022-10-16T02:59:32.102Z,34.10
2022-10-16T03:02:58.470Z,35.20
2022-10-16T03:06:27.729Z,33.60
2022-10-16T03:09:54.484Z,34.20
2022-10-16T03:13:23.147Z,32.60
2022-10-16T03:16:50.031Z,34.40
2022-10-16T03:20:17.183Z,33.30
2022-10-16T03:23:43.824Z,33.10
2022-10-16T03:27:11.096Z,34.10
2022-10-16T03:30:38.302Z,31.70
2022-10-16T03:34:05.395Z,30.60
2022-10-16T03:37:33.166Z,32.50
2022-10-16T03:40:59.575Z,32.20
2022-10-16T03:44:26.454Z,33.50
2022-10-16T03:47:53.133Z,31.90
2022-10-16T03:51:20.049Z,31.30
2022-10-16T03:54:46.805Z,29.30
2022-10-16T03:58:13.392Z,29.30
2022-10-16T04:01:39.999Z,28.00
2022-10-16T04:05:08.578Z,28.90
2022-10-16T04:08:36.195Z,27.30
2022-10-16T04:12:02.860Z,26.50
2022-10-16T04:15:29.750Z,25.10
2022-10-16T04:18:56.814Z,25.90
2022-10-16T04:22:24.013Z,26.30
2022-10-16T04:25:51.066Z,24.20
2022-10-16T04:29:17.769Z,23.60
2022-10-16T04:32:45.363Z,24.10
2022-10-16T04:36:12.935Z,24.50
2022-10-16T04:39:39.434Z,23.70
2022-10-16T04:43:06.072Z,24.00
2022-10-16T04:46:32.964Z,22.70
2022-10-16T04:50:02.279Z,22.60
2022-10-16T04:53:30.152Z,22.50
2022-10-16T04:56:57.096Z,22.20
2022-10-16T05:00:24.379Z,21.40
2022-10-16T05:03:51.482Z,22.10
2022-10-16T05:07:18.645Z,21.70
2022-10-16T05:10:47.243Z,23.50
2022-10-16T05:14:13.650Z,24.30
2022-10-16T05:17:42.612Z,22.70
2022-10-16T05:21:12.533Z,24.10
2022-10-16T05:24:39.139Z,24.80
2022-10-16T05:28:08.036Z,27.30
2022-10-16T05:31:34.879Z,27.70
2022-10-16T05:35:01.877Z,25.70
2022-10-16T05:38:29.550Z,27.10
2022-10-16T05:41:56.560Z,27.40
2022-10-16T05:45:23.023Z,28.80
2022-10-16T05:48:49.627Z,30.10
2022-10-16T05:52:16.599Z,28.20
2022-10-16T05:55:43.652Z,25.80
2022-10-16T05:59:10.558Z,25.80
2022-10-16T06:02:37.388Z,23.30
2022-10-16T06:06:12.511Z,22.80
2022-10-16T06:09:39.663Z,22.50
2022-10-16T06:13:09.625Z,23.50
2022-10-16T06:16:37.639Z,23.20
2022-10-16T06:20:04.279Z,22.10
2022-10-16T06:23:32.784Z,21.70
2022-10-16T06:26:59.891Z,21.90
2022-10-16T06:30:34.901Z,22.00
2022-10-16T06:34:02.916Z,22.20
2022-10-16T06:37:30.853Z,21.80
2022-10-16T06:40:58.819Z,20.70
2022-10-16T06:44:25.710Z,21.50
2022-10-16T06:47:52.487Z,22.00
2022-10-16T06:51:20.978Z,22.50
2022-10-16T06:54:50.944Z,21.00
2022-10-16T06:58:17.783Z,20.90
2022-10-16T07:01:44.264Z,20.80
2022-10-16T07:05:13.981Z,19.00
2022-10-16T07:08:42.567Z,19.70
2022-10-16T07:12:12.289Z,18.70
2022-10-16T07:15:39.286Z,19.90
2022-10-16T07:19:07.020Z,18.80
2022-10-16T07:22:33.958Z,18.20
2022-10-16T07:26:00.540Z,17.80
2022-10-16T07:29:28.315Z,19.00
2022-10-16T07:32:55.545Z,18.20
2022-10-16T07:36:23.553Z,18.40
2022-10-16T07:39:50.895Z,17.50
2022-10-16T07:43:18.171Z,16.90
2022-10-16T07:46:45.374Z,16.40
2022-10-16T07:50:12.547Z,15.10
2022-10-16T07:53:40.876Z,15.70
2022-10-16T07:57:07.570Z,16.00
2022-10-16T08:00:34.816Z,15.00
2022-10-16T08:04:01.655Z,14.50
2022-10-16T08:07:28.733Z,14.10
2022-10-16T08:10:56.363Z,14.00
2022-10-16T08:14:22.831Z,13.30
2022-10-16T08:18:00.926Z,13.70
2022-10-16T08:21:27.698Z,12.50
2022-10-16T08:24:54.042Z,13.20
2022-10-16T08:28:21.946Z,11.50
2022-10-16T08:31:49.840Z,11.40
2022-10-16T08:35:16.592Z,12.00
2022-10-16T08:38:43.964Z,11.70
2022-10-16T08:42:33.155Z,12.10
2022-10-16T08:46:23.845Z,12.10
2022-10-16T08:50:00.599Z,13.00
2022-10-16T08:53:32.832Z,12.00
2022-10-16T08:57:03.528Z,12.60
2022-10-16T09:00:31.508Z,11.70
2022-10-16T09:04:17.617Z,12.50
2022-10-16T09:07:51.925Z,12.10
2022-10-16T09:11:34.746Z,11.40
2022-10-16T09:15:21.937Z,11.10
2022-10-16T09:18:58.409Z,11.90
2022-10-16T09:22:29.324Z,12.40
2022-10-16T09:25:57.912Z,12.80
2022-10-16T09:29:26.440Z,12.20
2022-10-16T09:33:00.566Z,11.80
2022-10-16T09:36:29.737Z,12.60
2022-10-16T09:39:58.121Z,12.70
2022-10-16T09:43:29.060Z,11.50
2022-10-16T09:47:06.162Z,10.80
2022-10-16T09:50:33.841Z,10.10
2022-10-16T09:54:02.810Z,11.30
2022-10-16T09:57:31.355Z,11.50
2022-10-16T10:00:59.084Z,11.10
2022-10-16T10:04:29.609Z,12.00
2022-10-16T10:08:01.233Z,10.50
2022-10-16T10:11:46.759Z,10.20
2022-10-16T10:15:21.160Z,10.10
2022-10-16T10:18:48.954Z,10.00
2022-10-16T10:22:29.003Z,10.20
2022-10-16T10:26:02.637Z,10.30
2022-10-16T10:33:20.161Z,10.70
2022-10-16T10:36:55.946Z,10.70
2022-10-16T10:40:37.633Z,11.10
2022-10-16T10:44:23.139Z,10.00
2022-10-16T10:48:08.893Z,9.30
2022-10-16T10:51:43.210Z,9.70
2022-10-16T10:55:22.461Z,8.80
2022-10-16T10:59:11.528Z,9.60
2022-10-16T11:02:44.446Z,8.30
2022-10-16T11:06:15.466Z,9.00
2022-10-16T11:09:48.341Z,8.10
2022-10-16T11:13:26.197Z,9.80
2022-10-16T11:16:59.503Z,9.00
2022-10-16T11:20:32.004Z,9.70
2022-10-16T11:24:03.743Z,10.40
2022-10-16T11:27:42.048Z,10.00
2022-10-16T11:31:17.229Z,8.60
2022-10-16T11:34:52.449Z,9.90
2022-10-16T11:38:37.613Z,8.80
2022-10-16T11:42:11.452Z,8.50
2022-10-16T11:45:42.818Z,8.10
2022-10-16T11:49:16.415Z,7.60
2022-10-16T11:52:56.684Z,7.30
2022-10-16T11:56:35.796Z,6.70
2022-10-16T12:00:11.858Z,6.20
2022-10-16T12:03:50.667Z,7.40
2022-10-16T12:07:26.773Z,7.00
2022-10-16T12:10:56.703Z,7.20
2022-10-16T12:15:11.208Z,7.30
2022-10-16T12:18:28.529Z,9.60
2022-10-16T12:21:57.806Z,8.50
2022-10-16T12:25:31.076Z,7.50
2022-10-16T12:29:12.619Z,7.50
2022-10-16T12:32:46.814Z,7.60
2022-10-16T12:36:20.997Z,7.50
2022-10-16T12:39:53.181Z,7.20
2022-10-16T12:43:39.651Z,8.80
2022-10-16T12:47:27.134Z,7.80
2022-10-16T12:50:59.022Z,7.00
2022-10-16T12:54:32.940Z,7.50
2022-10-16T12:58:18.471Z,6.70
2022-10-16T13:02:04.500Z,6.00
2022-10-16T13:05:48.771Z,6.10
2022-10-16T13:09:42.556Z,6.10
2022-10-16T13:17:00.493Z,6.40
2022-10-16T13:24:10.181Z,6.30
2022-10-16T13:27:47.337Z,6.60
2022-10-16T13:31:22.393Z,5.90
2022-10-16T13:34:54.656Z,6.10
2022-10-16T13:38:23.476Z,7.70
2022-10-16T13:42:09.021Z,7.10
2022-10-16T13:45:37.299Z,6.60
2022-10-16T13:49:05.761Z,6.60
2022-10-16T13:52:33.938Z,6.50
2022-10-16T13:56:02.610Z,5.50
2022-10-16T13:59:38.746Z,6.40
2022-10-16T14:03:15.444Z,5.60
2022-10-16T14:06:47.730Z,5.10
2022-10-16T14:10:25.326Z,5.90
2022-10-16T14:13:53.642Z,5.50
2022-10-16T14:17:24.725Z,5.30
2022-10-16T14:20:52.294Z,5.60
2022-10-16T14:24:29.711Z,5.40
2022-10-16T14:28:04.882Z,5.50
2022-10-16T14:31:34.284Z,6.70
2022-10-16T14:35:01.103Z,6.00
2022-10-16T14:38:28.964Z,5.70
2022-10-16T14:41:59.396Z,4.60
2022-10-16T14:45:30.394Z,5.80
2022-10-16T14:49:03.366Z,4.20
2022-10-16T14:52:29.964Z,4.70
2022-10-16T14:55:56.800Z,4.80
2022-10-16T14:59:28.966Z,4.70
2022-10-16T15:02:56.405Z,4.70
2022-10-16T15:06:25.256Z,5.10
2022-10-16T15:09:54.304Z,5.90
2022-10-16T15:13:21.891Z,5.60
2022-10-16T15:16:50.247Z,11.40
2022-10-16T15:20:23.645Z,11.20
2022-10-16T15:23:54.431Z,10.40
2022-10-16T15:27:21.389Z,9.90
2022-10-16T15:30:49.734Z,11.00
2022-10-16T15:34:17.907Z,10.30
2022-10-16T15:37:47.596Z,8.50
2022-10-16T15:41:19.540Z,7.90
2022-10-16T15:44:46.319Z,7.10
2022-10-16T15:48:16.440Z,7.00
2022-10-16T15:51:45.678Z,7.20
2022-10-16T15:55:19.486Z,9.00
2022-10-16T15:58:46.844Z,12.70
2022-10-16T16:02:14.039Z,15.60
2022-10-16T16:05:46.631Z,17.50
2022-10-16T16:09:13.789Z,18.40
2022-10-16T16:12:41.923Z,17.20
2022-10-16T16:16:12.472Z,14.30
2022-10-16T16:19:45.189Z,15.80
2022-10-16T16:23:16.891Z,14.20
2022-10-16T16:26:47.135Z,14.60
2022-10-16T16:30:23.623Z,13.90
2022-10-16T16:33:55.322Z,14.10
2022-10-16T16:37:25.518Z,14.10
2022-10-16T16:40:56.215Z,12.70
2022-10-16T16:44:24.220Z,13.20
2022-10-16T16:47:51.193Z,13.60
2022-10-16T16:51:20.995Z,17.10
2022-10-16T16:54:53.154Z,20.00
2022-10-16T16:58:24.419Z,22.90
2022-10-16T17:01:56.687Z,24.40
2022-10-16T17:05:25.214Z,26.30
2022-10-16T17:08:53.491Z,25.40
2022-10-16T17:12:25.213Z,29.90
2022-10-16T17:15:54.140Z,32.40
2022-10-16T17:19:22.954Z,31.30
2022-10-16T17:22:54.054Z,28.70
2022-10-16T17:26:23.464Z,30.20
2022-10-16T17:29:57.920Z,22.10
2022-10-16T17:33:26.481Z,22.30
2022-10-16T17:36:56.316Z,18.70
2022-10-16T17:40:33.219Z,21.00
2022-10-16T17:44:05.160Z,17.50
2022-10-16T17:47:34.638Z,18.80
2022-10-16T17:51:02.329Z,19.90
2022-10-16T17:54:29.789Z,19.00
2022-10-16T17:58:00.127Z,21.90
2022-10-16T18:01:32.151Z,18.40
2022-10-16T18:04:59.000Z,17.20
2022-10-16T18:08:31.162Z,16.20
2022-10-16T18:12:02.205Z,14.90
2022-10-16T18:15:30.966Z,14.50
2022-10-16T18:19:01.212Z,15.10
2022-10-16T18:22:31.176Z,14.60
2022-10-16T18:25:58.735Z,13.30
2022-10-16T18:29:28.959Z,13.80
2022-10-16T18:32:56.109Z,14.70
2022-10-16T18:36:25.499Z,14.00
2022-10-16T18:39:55.215Z,13.60
2022-10-16T18:43:22.553Z,13.60
2022-10-16T18:46:51.290Z,14.40
2022-10-16T18:50:24.521Z,14.60
2022-10-16T18:53:59.853Z,14.50
2022-10-16T18:57:30.284Z,13.60
2022-10-16T19:00:57.441Z,14.90
2022-10-16T19:04:24.713Z,14.40
2022-10-16T19:08:01.873Z,14.50
2022-10-16T19:11:34.832Z,14.80
2022-10-16T19:15:06.345Z,12.80
2022-10-16T19:18:40.764Z,12.30
2022-10-16T19:22:28.640Z,12.60
2022-10-16T19:26:01.614Z,13.80
2022-10-16T19:29:33.443Z,13.70
2022-10-16T19:33:05.502Z,14.90
2022-10-16T19:36:42.362Z,16.40
2022-10-16T19:40:16.450Z,15.90
2022-10-16T19:43:43.949Z,18.30
2022-10-16T19:47:11.922Z,18.50
2022-10-16T19:50:48.730Z,18.60
2022-10-16T19:54:18.329Z,22.50
2022-10-16T19:57:46.269Z,24.90
2022-10-16T20:01:15.488Z,29.50
2022-10-16T20:04:44.246Z,28.70
2022-10-16T20:08:12.548Z,30.10
2022-10-16T20:11:39.891Z,27.60
2022-10-16T20:15:08.858Z,28.00
2022-10-16T20:18:36.741Z,25.00
2022-10-16T20:22:05.044Z,22.60
2022-10-16T20:25:35.664Z,23.50
2022-10-16T20:29:02.574Z,22.80
2022-10-16T20:32:31.327Z,23.90
2022-10-16T20:35:58.687Z,23.60
2022-10-16T20:39:25.404Z,21.80
2022-10-16T20:42:52.645Z,20.90
2022-10-16T20:46:23.018Z,21.40
2022-10-16T20:49:50.758Z,22.50
2022-10-16T20:53:20.165Z,21.40
2022-10-16T20:56:47.054Z,21.10
2022-10-16T21:00:15.658Z,19.80
2022-10-16T21:03:43.211Z,18.20
2022-10-16T21:07:10.552Z,18.00
2022-10-16T21:10:37.133Z,17.70
2022-10-16T21:14:06.477Z,18.40
2022-10-16T21:17:34.265Z,17.20
2022-10-16T21:21:01.926Z,16.30
2022-10-16T21:24:29.098Z,16.60
2022-10-16T21:27:55.852Z,16.90
2022-10-16T21:31:23.819Z,17.10
2022-10-16T21:34:51.269Z,17.40
2022-10-16T21:38:18.718Z,17.90
2022-10-16T21:41:47.693Z,16.90
2022-10-16T21:45:15.751Z,17.70
2022-10-16T21:48:44.346Z,17.10
2022-10-16T21:52:16.910Z,17.80
2022-10-16T21:55:43.787Z,16.60
2022-10-16T21:59:12.063Z,16.80
2022-10-16T22:02:40.221Z,16.90
2022-10-16T22:06:09.403Z,15.70
2022-10-16T22:09:36.467Z,16.70
2022-10-16T22:13:03.510Z,17.10
2022-10-16T22:16:30.289Z,17.40
2022-10-16T22:20:06.133Z,16.20
2022-10-16T22:23:49.998Z,16.70
2022-10-16T22:27:17.311Z,19.20
2022-10-16T22:30:44.652Z,17.80
2022-10-16T22:34:15.354Z,19.40
2022-10-16T22:37:41.995Z,18.50
2022-10-16T22:41:10.553Z,18.80
2022-10-16T22:44:39.738Z,18.60
2022-10-16T22:48:07.652Z,18.40
2022-10-16T22:51:35.239Z,18.40
2022-10-16T22:55:02.132Z,16.00
2022-10-16T22:58:29.923Z,15.70
2022-10-16T23:01:56.304Z,15.30
2022-10-16T23:05:23.906Z,15.80
2022-10-16T23:08:54.098Z,15.50
2022-10-16T23:12:22.055Z,15.70
2022-10-16T23:15:51.901Z,15.60
2022-10-16T23:19:19.368Z,14.80
2022-10-16T23:22:46.549Z,16.40
2022-10-16T23:26:15.194Z,15.70
2022-10-16T23:29:42.167Z,16.30
2022-10-16T23:33:09.003Z,16.80
2022-10-16T23:36:36.435Z,16.70
2022-10-16T23:40:04.143Z,16.30
2022-10-16T23:43:31.139Z,17.10
2022-10-16T23:46:58.169Z,15.90
2022-10-16T23:50:25.126Z,15.20
2022-10-16T23:53:53.993Z,14.40
2022-10-16T23:57:21.595Z,15.00
